Time;durP1;ratioP1;P1;durP2;ratioP2;P2;SDS_P1;SDS_P2;PMS_P1;PMS_P2;Temp;Humidity;BMP_temperature;BMP_pressure;BME280_temperature;BME280_humidity;BME280_pressure;Samples;Min_cycle;Max_cycle;Signal;HPM_P1;HPM_P2
2022/09/22 00:01:26;;;;;;;4.50;3.90;;;;;;;8.86;90.55;102600.16;4978011;28;20730;-74
2022/09/22 00:03:55;;;;;;;4.00;3.60;;;;;;;8.85;90.45;102604.34;4983348;28;20187;-75
2022/09/22 00:06:23;;;;;;;4.17;3.40;;;;;;;8.79;91.05;102604.03;4989674;28;20196;-75
2022/09/22 00:08:51;;;;;;;4.47;3.57;;;;;;;8.71;91.63;102602.72;4987894;28;20556;-74
2022/09/22 00:11:22;;;;;;;5.23;3.50;;;;;;;8.72;90.73;102604.50;4985397;28;20215;-74
2022/09/22 00:13:52;;;;;;;5.20;3.73;;;;;;;8.70;90.89;102597.56;4993866;28;20192;-75
2022/09/22 00:16:30;;;;;;;4.30;3.90;;;;;;;8.55;90.18;102605.25;4987406;28;20192;-74
2022/09/22 00:18:56;;;;;;;4.40;3.83;;;;;;;8.56;89.73;102598.44;4980916;28;20756;-74
2022/09/22 00:21:23;;;;;;;3.93;3.57;;;;;;;8.53;90.11;102600.84;4978241;28;20303;-74
2022/09/22 00:23:49;;;;;;;3.60;3.30;;;;;;;8.46;91.28;102604.72;4978932;28;20217;-75
2022/09/22 00:26:17;;;;;;;4.17;3.40;;;;;;;8.35;91.24;102604.94;4975959;28;20636;-74
2022/09/22 00:28:44;;;;;;;3.93;3.53;;;;;;;8.36;90.74;102602.47;4977599;28;20268;-75
2022/09/22 00:31:22;;;;;;;6.20;3.70;;;;;;;8.35;90.19;102600.72;4975765;28;20218;-75
2022/09/22 00:33:48;;;;;;;4.03;3.33;;;;;;;8.25;90.87;102600.09;4980619;28;20198;-75
2022/09/22 00:36:15;;;;;;;3.77;3.43;;;;;;;8.24;90.98;102603.44;4985312;28;20191;-75
2022/09/22 00:38:41;;;;;;;4.60;3.63;;;;;;;8.22;90.66;102602.47;4983560;28;20240;-75
2022/09/22 00:41:09;;;;;;;3.50;3.20;;;;;;;8.16;90.13;102590.19;4990080;28;20727;-74
2022/09/22 00:43:36;;;;;;;6.13;3.73;;;;;;;8.14;90.55;102590.91;4979830;28;20291;-74
2022/09/22 00:46:25;;;;;;;6.37;4.00;;;;;;;8.15;89.57;102590.13;4993276;28;20187;-74
2022/09/22 00:48:59;;;;;;;4.70;3.73;;;;;;;8.06;90.20;102595.56;4984105;28;20202;-74
2022/09/22 00:51:29;;;;;;;3.90;3.27;;;;;;;8.04;90.43;102592.06;4986383;28;20212;-74
2022/09/22 00:53:56;;;;;;;6.30;3.60;;;;;;;8.03;90.23;102599.63;4984363;28;20200;-74
2022/09/22 00:56:27;;;;;;;4.00;3.60;;;;;;;8.03;90.42;102590.31;4992778;28;20196;-75
2022/09/22 00:58:57;;;;;;;4.37;3.97;;;;;;;8.00;89.73;102596.88;4980776;28;20208;-75
2022/09/22 01:01:23;;;;;;;4.57;4.17;;;;;;;8.01;89.98;102589.31;4986726;28;20220;-75
2022/09/22 01:03:49;;;;;;;4.37;3.97;;;;;;;7.98;91.44;102589.16;4991873;28;20242;-75
2022/09/22 01:06:23;;;;;;;5.20;4.50;;;;;;;7.99;91.14;102587.47;4981598;28;20220;-75
2022/09/22 01:08:49;;;;;;;4.57;4.10;;;;;;;7.95;91.66;102590.63;4988942;28;20633;-75
2022/09/22 01:11:19;;;;;;;5.07;4.57;;;;;;;7.91;90.70;102588.69;4980827;28;20219;-74
2022/09/22 01:14:11;;;;;;;7.10;4.73;;;;;;;7.88;91.69;102586.84;4992067;28;20194;-75
2022/09/22 01:16:58;;;;;;;4.30;3.90;;;;;;;7.83;91.15;102582.31;4993734;28;20287;-75
2022/09/22 01:19:42;;;;;;;4.47;3.83;;;;;;;7.84;91.03;102582.38;4982616;28;20192;-74
2022/09/22 01:22:45;;;;;;;4.57;4.17;;;;;;;7.85;91.16;102575.59;4988775;28;20266;-74
2022/09/22 01:25:36;;;;;;;5.93;4.27;;;;;;;7.80;91.06;102577.91;5000437;28;20703;-74
2022/09/22 01:28:01;;;;;;;4.70;4.20;;;;;;;7.76;92.03;102573.41;4996041;28;20183;-75
2022/09/22 01:30:52;;;;;;;4.47;3.80;;;;;;;7.72;91.85;102578.22;4979765;28;20209;-74
2022/09/22 01:33:41;;;;;;;4.60;3.83;;;;;;;7.68;91.94;102579.72;4994561;28;20191;-74
2022/09/22 01:36:20;;;;;;;4.57;3.77;;;;;;;7.69;92.47;102565.31;4991553;28;20248;-74
2022/09/22 01:39:11;;;;;;;3.90;3.60;;;;;;;7.62;91.14;102564.09;4985225;28;20212;-75
2022/09/22 01:41:36;;;;;;;4.47;3.90;;;;;;;7.60;91.77;102568.19;4993878;28;20207;-75
2022/09/22 01:44:06;;;;;;;5.63;4.00;;;;;;;7.56;91.62;102562.84;4997252;28;20246;-74
2022/09/22 01:46:37;;;;;;;4.33;3.80;;;;;;;7.51;91.12;102566.78;4993803;28;20649;-75
2022/09/22 01:49:07;;;;;;;6.03;3.83;;;;;;;7.48;90.47;102567.50;4994313;28;20478;-74
2022/09/22 01:51:47;;;;;;;4.43;3.57;;;;;;;7.45;90.88;102563.84;4993076;28;20215;-75
2022/09/22 01:54:18;;;;;;;4.67;3.40;;;;;;;7.40;91.34;102571.25;4998347;28;20204;-75
2022/09/22 01:56:47;;;;;;;6.57;3.50;;;;;;;7.37;91.52;102563.41;4987003;28;20192;-75
2022/09/22 01:59:16;;;;;;;5.03;3.90;;;;;;;7.35;91.23;102570.09;4997256;28;20243;-74
2022/09/22 02:01:47;;;;;;;5.13;3.40;;;;;;;7.36;91.25;102560.75;4996429;28;20586;-74
2022/09/22 02:04:24;;;;;;;3.90;3.33;;;;;;;7.29;91.50;102564.63;4997812;28;20694;-74
2022/09/22 02:07:03;;;;;;;3.80;3.40;;;;;;;7.21;91.22;102568.38;4997516;28;20574;-75
2022/09/22 02:09:33;;;;;;;3.80;3.50;;;;;;;7.22;91.69;102572.69;4994478;28;20645;-75
2022/09/22 02:12:00;;;;;;;5.50;3.30;;;;;;;7.23;91.46;102558.28;4999320;28;20293;-75
2022/09/22 02:14:26;;;;;;;3.90;3.50;;;;;;;7.16;91.91;102554.50;4998767;28;20298;-75
2022/09/22 02:16:53;;;;;;;4.13;3.23;;;;;;;7.18;91.40;102564.78;4992992;28;20660;-75
2022/09/22 02:19:38;;;;;;;4.20;3.50;;;;;;;7.18;91.27;102555.44;4999274;28;20216;-74
2022/09/22 02:22:06;;;;;;;5.70;3.73;;;;;;;7.21;91.38;102559.84;4995267;28;20296;-75
2022/09/22 02:24:32;;;;;;;4.73;3.73;;;;;;;7.13;91.89;102564.50;5012048;28;20191;-74
2022/09/22 02:27:03;;;;;;;6.03;3.87;;;;;;;7.10;91.70;102563.44;4995260;28;20209;-75
2022/09/22 02:29:32;;;;;;;6.57;3.70;;;;;;;7.07;91.65;102558.13;4996486;28;20191;-75
2022/09/22 02:32:00;;;;;;;4.50;3.47;;;;;;;7.05;91.54;102558.03;4997446;28;20744;-75
2022/09/22 02:34:27;;;;;;;13.47;3.60;;;;;;;7.07;91.16;102568.31;4997626;28;20603;-76
2022/09/22 02:37:11;;;;;;;4.17;3.53;;;;;;;7.04;91.86;102563.06;5010283;28;20657;-75
2022/09/22 02:39:45;;;;;;;4.10;3.70;;;;;;;7.00;92.31;102561.13;4997427;28;20183;-75
2022/09/22 02:42:16;;;;;;;4.43;4.03;;;;;;;7.00;92.61;102561.97;4997748;28;20740;-75
2022/09/22 02:45:11;;;;;;;4.07;3.30;;;;;;;6.95;92.10;102563.38;4996334;28;20199;-75
2022/09/22 02:47:44;;;;;;;3.70;3.40;;;;;;;6.94;92.45;102566.72;5001819;28;20183;-75
2022/09/22 02:50:12;;;;;;;3.67;3.23;;;;;;;6.91;92.11;102563.97;4987919;28;20709;-74
2022/09/22 02:52:39;;;;;;;3.83;3.10;;;;;;;6.85;92.00;102555.97;4996559;28;20241;-74
2022/09/22 02:55:07;;;;;;;3.60;3.30;;;;;;;6.83;91.79;102549.00;4989153;28;20244;-74
2022/09/22 02:57:32;;;;;;;3.30;3.00;;;;;;;6.84;91.74;102556.75;4997702;28;20219;-74
2022/09/22 02:59:58;;;;;;;3.90;3.20;;;;;;;6.76;92.41;102547.75;5001960;28;20307;-75
2022/09/22 03:02:23;;;;;;;3.40;3.10;;;;;;;6.77;92.22;102546.97;4988220;28;20743;-74
2022/09/22 03:04:50;;;;;;;3.87;3.50;;;;;;;6.80;91.47;102549.72;4994254;28;20234;-74
2022/09/22 03:07:16;;;;;;;3.60;3.30;;;;;;;6.70;92.83;102549.94;4994234;28;20338;-75
2022/09/22 03:09:42;;;;;;;4.00;3.20;;;;;;;6.76;92.01;102544.31;4997352;28;20183;-74
2022/09/22 03:12:07;;;;;;;3.60;3.03;;;;;;;6.72;93.22;102537.31;4995105;28;20211;-75
2022/09/22 03:14:33;;;;;;;3.53;3.23;;;;;;;6.69;93.12;102542.19;4999279;28;20327;-75
2022/09/22 03:16:58;;;;;;;5.60;3.47;;;;;;;6.66;92.33;102542.88;4993479;28;20252;-74
2022/09/22 03:19:24;;;;;;;3.93;3.57;;;;;;;6.66;92.76;102536.91;4999100;28;20196;-74
2022/09/22 03:21:49;;;;;;;3.43;3.13;;;;;;;6.61;92.83;102548.47;4996713;28;20223;-75
2022/09/22 03:24:15;;;;;;;5.17;3.13;;;;;;;6.56;92.95;102540.56;5000120;28;20199;-75
2022/09/22 03:26:40;;;;;;;3.90;3.53;;;;;;;6.60;92.32;102545.06;4991955;28;20195;-75
2022/09/22 03:29:05;;;;;;;3.33;3.03;;;;;;;6.50;92.44;102536.75;4999037;28;20202;-74
2022/09/22 03:31:31;;;;;;;6.30;3.40;;;;;;;6.57;92.70;102536.31;4986553;28;20239;-74
2022/09/22 03:33:56;;;;;;;3.50;3.20;;;;;;;6.54;92.74;102542.09;4999068;28;20241;-74
2022/09/22 03:36:22;;;;;;;3.17;2.87;;;;;;;6.46;92.54;102542.41;4995451;28;20183;-74
2022/09/22 03:38:47;;;;;;;3.80;2.87;;;;;;;6.49;92.28;102542.63;4999253;28;20307;-74
2022/09/22 03:41:13;;;;;;;4.57;3.07;;;;;;;6.47;92.54;102536.53;4974389;28;20222;-74
2022/09/22 03:43:38;;;;;;;4.10;3.17;;;;;;;6.41;91.93;102542.13;4993361;28;20180;-75
2022/09/22 03:46:04;;;;;;;3.20;2.90;;;;;;;6.43;91.98;102532.03;4995098;28;20191;-74
2022/09/22 03:48:30;;;;;;;2.80;2.50;;;;;;;6.43;91.83;102534.59;4993781;28;20195;-75
2022/09/22 03:50:56;;;;;;;4.77;2.73;;;;;;;6.38;92.64;102535.97;4992424;28;20354;-74
2022/09/22 03:53:23;;;;;;;3.23;2.50;;;;;;;6.35;92.64;102531.56;4993576;28;20231;-75
2022/09/22 03:55:49;;;;;;;2.70;2.50;;;;;;;6.33;92.62;102533.16;4991500;28;20199;-74
2022/09/22 03:58:14;;;;;;;2.70;2.50;;;;;;;6.28;92.34;102531.97;4990283;28;20203;-75
2022/09/22 04:00:40;;;;;;;2.77;2.57;;;;;;;6.25;92.91;102526.69;4998075;28;20705;-74
2022/09/22 04:03:06;;;;;;;4.57;2.60;;;;;;;6.22;92.64;102529.03;4985725;28;20198;-74
2022/09/22 04:05:31;;;;;;;5.80;2.33;;;;;;;6.23;93.40;102533.34;4999535;28;20242;-74
2022/09/22 04:07:57;;;;;;;3.00;2.50;;;;;;;6.17;92.97;102532.94;4996562;28;20210;-74
2022/09/22 04:10:22;;;;;;;2.50;2.30;;;;;;;6.19;92.44;102527.97;4991587;28;20363;-75
2022/09/22 04:12:48;;;;;;;2.50;2.30;;;;;;;6.17;92.61;102530.41;4985626;28;20199;-74
2022/09/22 04:15:14;;;;;;;2.47;2.23;;;;;;;6.17;92.75;102519.38;4997560;28;20215;-75
2022/09/22 04:17:39;;;;;;;3.60;2.53;;;;;;;6.14;92.40;102522.59;4985099;28;20572;-74
2022/09/22 04:20:06;;;;;;;2.57;2.37;;;;;;;6.14;92.80;102519.16;4996283;28;20251;-74
2022/09/22 04:22:32;;;;;;;5.77;2.73;;;;;;;6.13;93.26;102515.72;4992488;28;20200;-75
2022/09/22 04:24:58;;;;;;;2.60;2.40;;;;;;;6.13;93.02;102518.25;4994727;28;20197;-75
2022/09/22 04:27:23;;;;;;;2.63;2.30;;;;;;;6.12;92.76;102513.09;4980571;28;20188;-75
2022/09/22 04:29:49;;;;;;;2.93;2.40;;;;;;;6.09;92.97;102510.34;4981995;28;20620;-74
2022/09/22 04:32:16;;;;;;;2.50;2.30;;;;;;;6.07;93.31;102507.72;4989202;28;20228;-74
2022/09/22 04:34:41;;;;;;;3.93;2.60;;;;;;;6.07;93.71;102510.25;4978831;28;20586;-74
2022/09/22 04:37:08;;;;;;;6.30;2.70;;;;;;;6.04;93.28;102506.66;4984814;28;20192;-74
2022/09/22 04:39:34;;;;;;;2.97;2.43;;;;;;;5.99;93.72;102506.34;4987818;28;20189;-75
2022/09/22 04:42:00;;;;;;;2.67;2.47;;;;;;;6.01;93.59;102506.44;4980362;28;20688;-74
2022/09/22 04:44:25;;;;;;;4.23;2.63;;;;;;;5.97;93.51;102502.81;4982571;28;20187;-74
2022/09/22 04:46:50;;;;;;;3.10;2.60;;;;;;;5.93;93.76;102508.50;4988510;28;20674;-74
2022/09/22 04:49:17;;;;;;;5.07;2.90;;;;;;;5.93;93.51;102508.50;4977008;28;20233;-74
2022/09/22 04:51:42;;;;;;;2.93;2.33;;;;;;;5.93;93.62;102511.03;4981236;28;20216;-74
2022/09/22 04:54:08;;;;;;;5.70;2.63;;;;;;;5.89;93.69;102503.13;4986633;28;20199;-74
2022/09/22 04:56:33;;;;;;;3.23;2.50;;;;;;;5.88;93.95;102506.44;4993526;28;20270;-74
2022/09/22 04:58:59;;;;;;;3.90;2.80;;;;;;;5.89;93.43;102505.66;4981841;28;20222;-74
2022/09/22 05:01:26;;;;;;;3.30;2.40;;;;;;;5.86;93.53;102505.47;4990078;28;20223;-74
2022/09/22 05:03:52;;;;;;;4.60;2.77;;;;;;;5.82;92.99;102504.38;4998353;28;20676;-74
2022/09/22 05:06:18;;;;;;;4.43;2.70;;;;;;;5.84;92.72;102507.03;4990862;28;20253;-74
2022/09/22 05:08:44;;;;;;;3.10;2.70;;;;;;;5.82;93.28;102506.03;4991358;28;20185;-74
2022/09/22 05:11:09;;;;;;;3.23;2.53;;;;;;;5.82;93.59;102504.38;4987284;28;20786;-75
2022/09/22 05:13:37;;;;;;;3.20;2.83;;;;;;;5.84;93.28;102505.34;4998427;28;20196;-74
2022/09/22 05:16:04;;;;;;;4.77;3.07;;;;;;;5.79;93.58;102501.59;5005978;28;20214;-74
2022/09/22 05:18:31;;;;;;;5.67;3.20;;;;;;;5.76;93.83;102519.19;4989640;28;20212;-74
2022/09/22 05:20:56;;;;;;;3.43;2.80;;;;;;;5.77;93.35;102515.88;4992922;28;20212;-74
2022/09/22 05:23:21;;;;;;;4.40;2.77;;;;;;;5.77;93.27;102520.06;4989959;28;20692;-74
2022/09/22 05:25:47;;;;;;;5.17;3.10;;;;;;;5.79;93.86;102521.94;4997500;28;20196;-74
2022/09/22 05:28:12;;;;;;;4.23;3.20;;;;;;;5.76;93.05;102518.31;4999885;28;20196;-74
2022/09/22 05:30:38;;;;;;;4.03;2.87;;;;;;;5.78;93.52;102522.72;4997793;28;20211;-74
2022/09/22 05:33:03;;;;;;;4.30;3.10;;;;;;;5.78;93.47;102519.28;4997491;28;20281;-74
2022/09/22 05:35:29;;;;;;;4.47;3.03;;;;;;;5.80;93.59;102527.91;5003071;28;20211;-74
2022/09/22 05:37:54;;;;;;;4.13;3.10;;;;;;;5.80;93.91;102527.91;5002432;28;20219;-75
2022/09/22 05:40:22;;;;;;;4.27;2.80;;;;;;;5.84;94.00;102523.16;4999345;28;20205;-74
2022/09/22 05:42:50;;;;;;;5.53;3.23;;;;;;;5.89;93.82;102526.88;4995256;28;20571;-75
2022/09/22 05:45:17;;;;;;;5.07;3.37;;;;;;;5.86;94.06;102526.69;4995533;28;20298;-74
2022/09/22 05:47:43;;;;;;;3.77;3.43;;;;;;;5.86;94.19;102524.16;4999134;28;20527;-74
2022/09/22 05:50:11;;;;;;;5.43;3.30;;;;;;;5.92;94.85;102529.63;4998784;28;20190;-75
2022/09/22 05:52:36;;;;;;;3.70;2.90;;;;;;;5.96;94.48;102521.41;5002704;28;20190;-75
2022/09/22 05:55:02;;;;;;;4.17;3.53;;;;;;;5.99;94.45;102529.22;4994764;28;20186;-75
2022/09/22 05:57:28;;;;;;;5.03;4.00;;;;;;;6.01;94.31;102534.41;5001705;28;20577;-75
2022/09/22 05:59:54;;;;;;;4.30;3.50;;;;;;;6.14;94.53;102526.78;5000664;28;20254;-75
2022/09/22 06:02:19;;;;;;;5.17;3.80;;;;;;;6.25;94.15;102525.78;4999397;28;20250;-75
2022/09/22 06:04:45;;;;;;;5.10;3.87;;;;;;;6.37;93.47;102527.47;4997680;28;20183;-75
2022/09/22 06:07:11;;;;;;;4.50;3.70;;;;;;;6.47;93.37;102527.25;4998577;28;20672;-75
2022/09/22 06:09:36;;;;;;;4.57;3.70;;;;;;;6.59;93.15;102532.22;5001637;28;20184;-75
2022/09/22 06:12:02;;;;;;;4.60;3.47;;;;;;;6.68;93.10;102533.66;4993693;28;20207;-75
2022/09/22 06:14:27;;;;;;;3.83;3.43;;;;;;;6.82;93.20;102539.63;5000686;28;20180;-74
2022/09/22 06:16:54;;;;;;;3.20;2.90;;;;;;;6.98;93.15;102532.13;5000336;28;20241;-75
2022/09/22 06:19:22;;;;;;;2.87;2.60;;;;;;;7.12;93.44;102527.09;5003681;28;20220;-75
2022/09/22 06:21:49;;;;;;;3.10;2.80;;;;;;;7.28;93.54;102531.44;4994414;28;20218;-75
2022/09/22 06:24:14;;;;;;;4.53;3.00;;;;;;;7.39;93.70;102528.72;5001131;28;20192;-76
2022/09/22 06:26:40;;;;;;;3.93;3.30;;;;;;;7.56;93.71;102528.00;4994131;28;20197;-75
2022/09/22 06:29:07;;;;;;;4.97;3.73;;;;;;;7.72;93.42;102523.03;5000606;28;20187;-75
2022/09/22 06:31:32;;;;;;;3.50;3.20;;;;;;;7.86;93.67;102526.34;5000524;28;20483;-76
2022/09/22 06:33:57;;;;;;;4.33;3.10;;;;;;;8.03;93.20;102526.53;4997555;28;20211;-75
2022/09/22 06:36:30;;;;;;;4.97;3.20;;;;;;;8.21;93.97;102532.69;4997341;28;20263;-76
2022/09/22 06:39:00;;;;;;;5.00;3.17;;;;;;;8.38;93.54;102531.94;4996137;28;20703;-76
2022/09/22 06:41:30;;;;;;;4.10;2.57;;;;;;;8.61;93.92;102534.09;5003149;28;20870;-76
2022/09/22 06:44:00;;;;;;;4.50;2.53;;;;;;;8.66;93.96;102531.78;4993912;28;20213;-76
2022/09/22 06:46:29;;;;;;;3.93;2.87;;;;;;;8.85;92.85;102531.97;5001736;28;20270;-76
2022/09/22 06:48:58;;;;;;;3.10;2.80;;;;;;;9.11;93.29;102524.88;4993527;28;20277;-75
2022/09/22 06:51:29;;;;;;;2.90;2.63;;;;;;;9.30;92.21;102525.03;4976630;28;20729;-76
2022/09/22 06:53:55;;;;;;;3.17;2.80;;;;;;;9.47;92.06;102534.44;4987193;28;20557;-76
2022/09/22 06:56:22;;;;;;;7.13;3.20;;;;;;;9.46;91.34;102537.81;4992636;28;20203;-76
2022/09/22 06:58:48;;;;;;;4.50;2.80;;;;;;;9.65;91.05;102524.25;4990036;28;20227;-76
2022/09/22 07:01:15;;;;;;;3.03;2.73;;;;;;;9.81;90.56;102531.91;4995333;28;20226;-75
2022/09/22 07:03:42;;;;;;;3.57;2.87;;;;;;;10.03;89.58;102533.00;5000552;28;20613;-76
2022/09/22 07:06:08;;;;;;;3.00;2.70;;;;;;;10.12;88.13;102532.59;4994942;28;20688;-77
2022/09/22 07:08:35;;;;;;;3.57;2.70;;;;;;;10.33;87.81;102534.50;4994177;28;20545;-78
2022/09/22 07:11:03;;;;;;;4.23;3.00;;;;;;;10.45;86.89;102529.06;4987293;28;20226;-78
2022/09/22 07:13:30;;;;;;;4.17;2.60;;;;;;;10.56;87.11;102530.47;4969411;28;20235;-78
2022/09/22 07:16:06;;;;;;;4.13;2.70;;;;;;;10.91;85.76;102527.81;4988592;28;20733;-76
2022/09/22 07:18:32;;;;;;;8.43;3.00;;;;;;;10.91;85.45;102531.28;4997958;28;20211;-76
2022/09/22 07:21:07;;;;;;;4.83;2.87;;;;;;;11.18;84.98;102529.94;4983040;28;20908;-76
2022/09/22 07:23:36;;;;;;;5.00;3.00;;;;;;;11.24;84.70;102530.19;4996073;28;20649;-77
2022/09/22 07:26:03;;;;;;;2.87;2.57;;;;;;;11.43;84.83;102532.75;4965328;28;20238;-76
2022/09/22 07:28:31;;;;;;;5.30;2.97;;;;;;;11.67;83.90;102525.25;4997495;28;20612;-76
2022/09/22 07:31:09;;;;;;;6.67;3.07;;;;;;;11.88;82.31;102527.00;4992562;28;20302;-76
2022/09/22 07:33:36;;;;;;;3.97;2.77;;;;;;;11.84;81.15;102531.97;4993057;28;20195;-75
2022/09/22 07:36:24;;;;;;;4.73;3.23;;;;;;;12.26;80.58;102531.13;4982268;28;20270;-76
2022/09/22 07:38:52;;;;;;;4.20;2.73;;;;;;;12.48;80.43;102532.00;4993463;28;20242;-75
2022/09/22 07:41:20;;;;;;;7.03;2.53;;;;;;;12.68;79.55;102530.22;4990805;28;20217;-76
2022/09/22 07:43:51;;;;;;;3.10;2.80;;;;;;;12.78;77.70;102532.31;5005789;28;20182;-76
2022/09/22 07:46:17;;;;;;;5.40;2.57;;;;;;;12.99;77.87;102524.53;4983015;28;21186;-75
2022/09/22 07:48:48;;;;;;;3.07;2.27;;;;;;;13.15;77.32;102532.88;4989593;28;20184;-75
2022/09/22 07:51:20;;;;;;;3.97;2.37;;;;;;;13.42;76.10;102525.25;4987563;28;20261;-75
2022/09/22 07:53:53;;;;;;;4.17;2.43;;;;;;;13.36;73.84;102514.75;4998070;28;20202;-74
2022/09/22 07:56:20;;;;;;;4.50;2.50;;;;;;;13.69;73.88;102511.63;4997427;28;20211;-74
2022/09/22 07:58:52;;;;;;;6.83;2.67;;;;;;;13.74;72.89;102522.06;4994535;28;20704;-75
2022/09/22 08:01:25;;;;;;;5.27;2.50;;;;;;;14.05;72.26;102520.53;4997990;28;20290;-75
2022/09/22 08:03:51;;;;;;;7.17;2.30;;;;;;;14.07;70.91;102523.16;4997833;28;20218;-75
2022/09/22 08:06:18;;;;;;;3.03;2.50;;;;;;;14.38;72.15;102521.66;4993778;28;20188;-75
2022/09/22 08:08:47;;;;;;;4.27;2.40;;;;;;;14.45;70.80;102515.00;4992769;28;20270;-76
2022/09/22 08:11:16;;;;;;;3.20;2.90;;;;;;;14.37;71.68;102516.44;4988514;28;20663;-76
2022/09/22 08:13:49;;;;;;;4.67;2.73;;;;;;;14.43;69.99;102522.66;4990311;28;20226;-76
2022/09/22 08:16:17;;;;;;;7.23;3.27;;;;;;;14.86;70.23;102519.63;4995029;28;20223;-76
2022/09/22 08:18:42;;;;;;;5.70;3.83;;;;;;;15.21;70.23;102516.34;4994260;28;20579;-76
2022/09/22 08:21:08;;;;;;;9.17;4.50;;;;;;;15.50;67.69;102516.34;4962355;28;20350;-76
2022/09/22 08:23:36;;;;;;;7.30;4.33;;;;;;;15.63;66.95;102522.69;4995652;28;20274;-76
2022/09/22 08:26:07;;;;;;;7.23;4.63;;;;;;;15.97;66.96;102514.97;4991950;28;20206;-76
2022/09/22 08:28:33;;;;;;;5.57;4.90;;;;;;;15.42;67.65;102515.25;4988764;28;20658;-76
2022/09/22 08:31:00;;;;;;;8.73;4.80;;;;;;;15.78;67.86;102511.03;4988092;28;20219;-75
2022/09/22 08:33:27;;;;;;;10.00;4.40;;;;;;;16.26;65.64;102516.53;4985660;28;20197;-75
2022/09/22 08:35:59;;;;;;;6.13;3.73;;;;;;;16.50;65.19;102515.41;4994489;28;20191;-76
2022/09/22 08:38:27;;;;;;;6.33;3.90;;;;;;;16.63;64.44;102516.53;4983047;28;20224;-75
2022/09/22 08:41:24;;;;;;;6.23;3.37;;;;;;;16.93;63.88;102522.34;4988938;28;20214;-76
2022/09/22 08:43:56;;;;;;;6.13;3.00;;;;;;;17.40;61.39;102519.88;4980058;28;20196;-76
2022/09/22 08:46:30;;;;;;;4.87;3.20;;;;;;;17.58;60.72;102524.50;4980879;28;20184;-76
2022/09/22 08:52:17;;;;;;;4.87;2.90;;;;;;;18.04;59.22;102527.91;4981573;28;20243;-77
2022/09/22 08:54:43;;;;;;;4.73;2.83;;;;;;;17.69;58.70;102521.25;4986595;28;20657;-77
2022/09/22 08:57:43;;;;;;;5.77;2.73;;;;;;;18.60;57.52;102516.69;4984071;28;20782;-77
2022/09/22 09:00:14;;;;;;;10.87;3.00;;;;;;;18.71;56.88;102522.03;4985523;28;20279;-77
2022/09/22 09:02:59;;;;;;;3.37;2.30;;;;;;;18.88;56.19;102520.53;4966704;28;20240;-75
2022/09/22 09:05:46;;;;;;;4.75;2.55;;;;;;;19.29;54.54;102517.56;4997361;28;20207;-75
2022/09/22 09:08:30;;;;;;;3.22;2.50;;;;;;;19.45;53.44;102518.59;4991441;28;20667;-77
2022/09/22 09:11:09;;;;;;;5.80;2.47;;;;;;;20.09;52.83;102515.75;4988305;28;20579;-76
2022/09/22 09:13:50;;;;;;;3.67;2.20;;;;;;;21.31;47.82;102515.50;4996715;28;20202;-77
2022/09/22 09:16:32;;;;;;;8.15;2.70;;;;;;;24.74;40.53;102501.75;4984929;28;20196;-74
2022/09/22 09:19:23;;;;;;;5.10;2.13;;;;;;;26.41;36.53;102501.75;4990961;28;20219;-74
2022/09/22 09:21:51;;;;;;;5.00;2.63;;;;;;;28.00;34.84;102503.47;4970927;28;20690;-74
2022/09/22 09:24:25;;;;;;;4.95;2.05;;;;;;;28.53;32.19;102485.31;4978690;28;20180;-74
2022/09/22 09:26:51;;;;;;;4.20;2.20;;;;;;;29.71;31.07;102485.19;4979565;28;20207;-75
2022/09/22 09:29:23;;;;;;;3.70;2.00;;;;;;;30.79;30.29;102480.47;4976477;28;20180;-75
2022/09/22 09:31:53;;;;;;;4.40;2.22;;;;;;;31.12;28.37;102481.78;4988783;28;20208;-76
2022/09/22 09:34:22;;;;;;;3.08;2.03;;;;;;;32.01;27.72;102482.50;4984686;28;20219;-75
2022/09/22 09:36:59;;;;;;;4.38;2.60;;;;;;;31.74;28.13;102483.63;4986580;28;20196;-75
2022/09/22 09:39:33;;;;;;;4.10;2.20;;;;;;;30.34;30.49;102482.13;4984250;28;20220;-75
2022/09/22 09:42:01;;;;;;;4.85;2.20;;;;;;;31.58;28.07;102477.22;4970842;28;20747;-75
2022/09/22 09:44:37;;;;;;;4.15;2.08;;;;;;;31.96;28.58;102476.53;4985783;28;20307;-75
2022/09/22 09:47:05;;;;;;;3.50;2.25;;;;;;;33.37;26.32;102466.44;4993684;28;20183;-76
2022/09/22 09:49:31;;;;;;;5.35;2.20;;;;;;;34.50;25.54;102461.38;4990931;28;20203;-75
2022/09/22 09:52:00;;;;;;;4.28;2.20;;;;;;;34.39;24.98;102466.44;4983105;28;20220;-75
2022/09/22 09:54:26;;;;;;;3.45;2.00;;;;;;;33.84;24.34;102460.44;4994058;28;20207;-75
2022/09/22 09:57:19;;;;;;;4.18;2.38;;;;;;;33.13;25.06;102459.59;4981207;28;20220;-75
2022/09/22 10:03:15;;;;;;;5.75;2.17;;;;;;;34.41;24.54;102459.22;4998067;28;20562;-75
2022/09/22 10:05:42;;;;;;;6.68;2.20;;;;;;;35.86;22.90;102453.47;4980994;28;20196;-75
2022/09/22 10:08:19;;;;;;;2.28;1.63;;;;;;;36.20;22.29;102449.66;4997248;28;20195;-76
2022/09/22 10:10:46;;;;;;;3.33;2.08;;;;;;;36.11;22.35;102460.84;4988810;28;20214;-76
2022/09/22 10:13:12;;;;;;;4.00;2.20;;;;;;;37.26;21.07;102449.88;4996658;28;20229;-75
2022/09/22 10:15:40;;;;;;;3.38;1.80;;;;;;;35.75;22.33;102452.41;4994201;28;20191;-75
2022/09/22 10:18:25;;;;;;;3.60;1.75;;;;;;;36.44;20.98;102442.78;4995135;28;20214;-75
2022/09/22 10:21:16;;;;;;;2.83;1.83;;;;;;;37.16;21.70;102432.75;4997324;28;20219;-76
2022/09/22 10:23:45;;;;;;;4.07;2.08;;;;;;;37.90;20.07;102431.19;4981786;28;20199;-76
2022/09/22 10:26:21;;;;;;;4.85;1.90;;;;;;;36.46;20.91;102435.53;4997528;28;20201;-76
2022/09/22 10:29:19;;;;;;;2.17;1.60;;;;;;;35.48;21.89;102438.00;4993387;28;20670;-76
2022/09/22 10:32:16;;;;;;;2.92;1.80;;;;;;;35.94;21.33;102434.34;4986845;28;20722;-75
2022/09/22 10:34:50;;;;;;;3.80;1.98;;;;;;;36.71;20.98;102430.38;4997674;28;20188;-76
2022/09/22 10:37:22;;;;;;;5.45;1.80;;;;;;;37.44;20.20;102424.59;4987707;28;20198;-75
2022/09/22 10:39:50;;;;;;;3.38;1.60;;;;;;;34.98;21.33;102429.38;4994158;28;20196;-75
2022/09/22 10:42:26;;;;;;;4.38;1.70;;;;;;;36.90;20.56;102429.06;4970565;28;20258;-75
2022/09/22 10:44:55;;;;;;;3.65;1.83;;;;;;;37.51;19.84;102423.19;4995192;28;20202;-75
2022/09/22 10:47:55;;;;;;;4.93;1.90;;;;;;;38.56;18.80;102407.69;4991274;28;20559;-75
2022/09/22 10:50:46;;;;;;;5.13;1.85;;;;;;;39.14;19.69;102409.66;4977755;28;20227;-75
2022/09/22 10:53:38;;;;;;;3.45;1.83;;;;;;;37.33;19.18;102412.91;5000303;28;20278;-76
2022/09/22 10:56:34;;;;;;;3.33;1.90;;;;;;;38.58;19.00;102410.28;4997072;28;20193;-75
2022/09/22 10:58:59;;;;;;;3.50;1.80;;;;;;;37.57;19.20;102411.25;4991870;28;20226;-75
2022/09/22 11:01:40;;;;;;;3.92;1.65;;;;;;;39.54;18.79;102394.94;4994763;28;20218;-75
2022/09/22 11:04:17;;;;;;;3.83;1.95;;;;;;;37.15;19.75;102406.09;4993694;28;20199;-76
2022/09/22 11:13:45;;;;;;;3.72;1.63;;;;;;;37.58;18.82;102408.47;4929789;29;20209;-74
2022/09/22 11:16:26;;;;;;;3.22;1.95;;;;;;;38.26;18.24;102401.88;4908198;29;20315;-74
2022/09/22 11:19:39;;;;;;;3.35;1.40;;;;;;;38.27;19.48;102400.91;4977548;28;20238;-75
2022/09/22 11:22:23;;;;;;;3.78;1.67;;;;;;;39.44;17.94;102396.63;4988800;28;20612;-75
2022/09/22 11:25:01;;;;;;;3.03;1.58;;;;;;;39.97;17.65;102386.13;4982916;28;20570;-75
2022/09/22 11:27:56;;;;;;;4.30;1.77;;;;;;;38.27;18.33;102383.94;4987677;28;20287;-75
2022/09/22 11:30:21;;;;;;;2.47;1.48;;;;;;;37.17;19.68;102388.13;4991603;28;20179;-75
2022/09/22 11:33:02;;;;;;;4.00;1.40;;;;;;;38.23;19.19;102396.72;4982187;28;20595;-75
2022/09/22 11:35:57;;;;;;;3.90;1.40;;;;;;;38.12;18.54;102393.94;4994880;28;20195;-75
2022/09/22 11:38:42;;;;;;;3.92;2.00;;;;;;;36.63;20.07;102392.56;4999102;28;20250;-74
2022/09/22 11:41:20;;;;;;;4.63;1.52;;;;;;;30.38;26.94;102405.22;4992544;28;20211;-74
2022/09/22 11:43:55;;;;;;;3.60;1.48;;;;;;;29.34;29.22;102400.13;4995808;28;20194;-76
2022/09/22 11:46:48;;;;;;;4.65;1.48;;;;;;;30.73;26.93;102388.03;4990064;28;20195;-74
2022/09/22 11:49:27;;;;;;;2.40;1.30;;;;;;;29.55;27.69;102392.38;4994115;28;20661;-74
2022/09/22 11:52:15;;;;;;;4.95;1.70;;;;;;;28.17;28.98;102401.09;4989487;28;20580;-73
2022/09/22 11:54:45;;;;;;;3.35;1.40;;;;;;;27.97;31.18;102392.88;4984166;28;20551;-76
2022/09/22 11:57:16;;;;;;;7.38;1.85;;;;;;;27.68;30.99;102390.13;5001047;28;20270;-76
2022/09/22 11:59:52;;;;;;;5.78;1.70;;;;;;;27.69;30.82;102391.84;4984116;28;20678;-76
2022/09/22 12:02:38;;;;;;;3.63;1.17;;;;;;;27.68;32.22;102379.59;4997064;28;20264;-76